createdAt,value
2022-11-05T00:00:32.450Z,100141.13
2022-11-05T00:03:18.977Z,100142.81
2022-11-05T00:06:08.490Z,100148.34
2022-11-05T00:08:54.174Z,100155.41
2022-11-05T00:11:41.511Z,100142.97
2022-11-05T00:14:27.486Z,100155.56
2022-11-05T00:16:54.755Z,100156.41
2022-11-05T00:19:25.759Z,100159.94
2022-11-05T00:22:13.722Z,100160.09
2022-11-05T00:24:59.693Z,100152.03
2022-11-05T00:27:27.025Z,100160.09
2022-11-05T00:29:54.309Z,100154.88
2022-11-05T00:32:23.463Z,100160.94
2022-11-05T00:34:50.748Z,100170.03
2022-11-05T00:37:18.294Z,100166.50
2022-11-05T00:39:45.967Z,100173.69
2022-11-05T00:42:31.489Z,100175.41
2022-11-05T00:45:01.995Z,100182.63
2022-11-05T00:47:52.119Z,100175.41
2022-11-05T00:50:20.902Z,100182.63
2022-11-05T00:52:56.275Z,100173.69
2022-11-05T00:55:24.371Z,100171.16
2022-11-05T00:57:52.114Z,100173.69
2022-11-05T01:00:19.963Z,100181.91
2022-11-05T01:02:47.482Z,100188.97
2022-11-05T01:05:14.956Z,100190.13
2022-11-05T01:07:42.307Z,100181.25
2022-11-05T01:10:09.831Z,100187.44
2022-11-05T01:12:37.141Z,100198.34
2022-11-05T01:15:04.915Z,100213.50
2022-11-05T01:17:32.169Z,100216.31
2022-11-05T01:19:59.466Z,100217.16
2022-11-05T01:22:26.722Z,100209.09
2022-11-05T01:24:54.036Z,100214.47
2022-11-05T01:27:22.264Z,100217.31
2022-11-05T01:29:49.552Z,100228.91
2022-11-05T01:32:16.771Z,100218.16
2022-11-05T01:34:44.105Z,100222.69
2022-11-05T01:37:11.430Z,100218.31
2022-11-05T01:39:38.682Z,100216.47
2022-11-05T01:42:14.863Z,100210.25
2022-11-05T01:44:48.051Z,100208.41
2022-11-05T01:47:41.416Z,100203.16
2022-11-05T01:50:37.642Z,100207.56
2022-11-05T01:53:12.183Z,100208.53
2022-11-05T01:55:49.405Z,100205.00
2022-11-05T01:58:20.434Z,100204.34
2022-11-05T02:00:47.840Z,100211.41
2022-11-05T02:03:17.918Z,100209.72
2022-11-05T02:05:46.413Z,100198.97
2022-11-05T02:08:22.619Z,100203.50
2022-11-05T02:10:50.636Z,100212.53
2022-11-05T02:13:17.932Z,100206.31
2022-11-05T02:15:48.174Z,100208.00
2022-11-05T02:18:38.636Z,100209.00
2022-11-05T02:21:47.279Z,100207.16
2022-11-05T02:24:33.247Z,100207.16
2022-11-05T02:27:19.021Z,100219.75
2022-11-05T02:30:03.940Z,100223.28
2022-11-05T02:33:01.947Z,100227.81
2022-11-05T02:35:29.110Z,100226.97
2022-11-05T02:38:46.980Z,100236.88
2022-11-05T02:41:33.500Z,100245.78
2022-11-05T02:44:12.726Z,100237.91
2022-11-05T02:46:46.974Z,100240.56
2022-11-05T02:49:30.723Z,100239.75
2022-11-05T02:52:01.460Z,100245.94
2022-11-05T02:54:58.530Z,100254.84
2022-11-05T02:57:29.708Z,100255.88
2022-11-05T03:00:07.752Z,100263.94
2022-11-05T03:02:35.499Z,100267.44
2022-11-05T03:05:03.680Z,100258.69
2022-11-05T03:07:47.968Z,100265.75
2022-11-05T03:10:36.860Z,100281.84
2022-11-05T03:13:17.575Z,100281.03
2022-11-05T03:15:57.261Z,100280.88
2022-11-05T03:18:42.497Z,100282.72
2022-11-05T03:21:22.013Z,100283.72
2022-11-05T03:23:58.781Z,100292.63
2022-11-05T03:26:30.717Z,100275.66
2022-11-05T03:29:06.729Z,100281.19
2022-11-05T03:31:37.073Z,100290.94
2022-11-05T03:34:07.999Z,100293.63
2022-11-05T03:36:45.163Z,100301.69
2022-11-05T03:39:19.153Z,100291.94
2022-11-05T03:41:51.913Z,100300.00
2022-11-05T03:44:25.641Z,100306.22
2022-11-05T03:46:56.835Z,100315.13
2022-11-05T03:49:32.956Z,100315.97
2022-11-05T03:52:14.625Z,100315.13
2022-11-05T03:54:42.041Z,100313.28
2022-11-05T03:57:25.874Z,100316.13
2022-11-05T03:59:53.216Z,100326.03
2022-11-05T04:02:24.215Z,100328.72
2022-11-05T04:04:52.727Z,100335.94
2022-11-05T04:07:38.413Z,100334.09
2022-11-05T04:10:24.756Z,100328.84
2022-11-05T04:13:10.819Z,100337.63
2022-11-05T04:15:56.950Z,100341.31
2022-11-05T04:18:24.273Z,100341.31
2022-11-05T04:21:10.170Z,100346.69
2022-11-05T04:23:56.092Z,100343.16
2022-11-05T04:26:23.662Z,100342.28
2022-11-05T04:29:10.208Z,100346.81
2022-11-05T04:31:38.621Z,100356.59
2022-11-05T04:34:05.917Z,100359.41
2022-11-05T04:36:33.247Z,100365.63
2022-11-05T04:39:00.517Z,100360.25
2022-11-05T04:41:27.869Z,100357.56
2022-11-05T04:43:55.207Z,100377.22
2022-11-05T04:46:22.485Z,100371.84
2022-11-05T04:48:49.810Z,100370.16
2022-11-05T04:51:17.090Z,100369.31
2022-11-05T04:53:44.302Z,100375.53
2022-11-05T04:56:31.886Z,100383.59
2022-11-05T04:58:59.138Z,100386.28
2022-11-05T05:01:26.552Z,100384.59
2022-11-05T05:03:54.694Z,100388.97
2022-11-05T05:06:22.793Z,100390.81
2022-11-05T05:08:51.682Z,100382.75
2022-11-05T05:11:21.445Z,100382.91
2022-11-05T05:13:49.915Z,100385.44
2022-11-05T05:16:23.463Z,100389.97
2022-11-05T05:18:51.152Z,100389.97
2022-11-05T05:21:38.839Z,100383.88
2022-11-05T05:24:08.697Z,100394.50
2022-11-05T05:26:38.673Z,100396.34
2022-11-05T05:29:06.860Z,100402.56
2022-11-05T05:31:34.548Z,100399.03
2022-11-05T05:34:02.437Z,100399.03
2022-11-05T05:36:30.342Z,100408.06
2022-11-05T05:38:57.899Z,100417.84
2022-11-05T05:41:25.243Z,100413.44
2022-11-05T05:43:52.437Z,100418.69
2022-11-05T05:46:19.892Z,100421.38
2022-11-05T05:48:52.091Z,100418.81
2022-11-05T05:51:20.100Z,100426.88
2022-11-05T05:53:47.446Z,100415.16
2022-11-05T05:56:15.468Z,100422.50
2022-11-05T05:58:42.776Z,100422.50
2022-11-05T06:01:18.524Z,100440.31
2022-11-05T06:03:47.419Z,100437.63
2022-11-05T06:06:15.999Z,100445.69
2022-11-05T06:08:43.292Z,100446.69
2022-11-05T06:11:10.637Z,100458.28
2022-11-05T06:13:38.330Z,100455.59
2022-11-05T06:16:08.378Z,100461.13
2022-11-05T06:18:36.355Z,100460.28
2022-11-05T06:21:06.110Z,100468.34
2022-11-05T06:23:34.671Z,100468.34
2022-11-05T06:26:06.764Z,100481.63
2022-11-05T06:28:34.511Z,100482.63
2022-11-05T06:31:02.211Z,100484.47
2022-11-05T06:33:29.812Z,100484.56
2022-11-05T06:36:01.618Z,100493.50
2022-11-05T06:38:31.724Z,100499.72
2022-11-05T06:40:59.804Z,100498.00
2022-11-05T06:43:28.064Z,100503.38
2022-11-05T06:45:55.988Z,100510.59
2022-11-05T06:48:25.289Z,100507.91
2022-11-05T06:50:52.532Z,100515.97
2022-11-05T06:53:20.308Z,100516.97
2022-11-05T06:55:48.057Z,100512.44
2022-11-05T06:58:16.308Z,100529.41
2022-11-05T07:00:43.723Z,100520.50
2022-11-05T07:03:12.350Z,100529.56
2022-11-05T07:05:46.684Z,100534.94
2022-11-05T07:08:14.271Z,100537.63
2022-11-05T07:10:41.609Z,100545.69
2022-11-05T07:13:09.245Z,100550.22
2022-11-05T07:15:37.269Z,100559.13
2022-11-05T07:18:07.396Z,100565.34
2022-11-05T07:20:35.499Z,100569.88
2022-11-05T07:23:10.074Z,100578.94
2022-11-05T07:25:37.667Z,100578.94
2022-11-05T07:28:05.682Z,100588.84
2022-11-05T07:30:34.481Z,100600.44
2022-11-05T07:33:02.639Z,100603.13
2022-11-05T07:35:30.015Z,100598.72
2022-11-05T07:37:57.299Z,100602.28
2022-11-05T07:40:27.731Z,100608.63
2022-11-05T07:42:57.532Z,100610.34
2022-11-05T07:45:26.842Z,100614.00
2022-11-05T07:47:57.057Z,100623.88
2022-11-05T07:50:27.092Z,100622.91
2022-11-05T07:53:03.535Z,100621.19
2022-11-05T07:55:30.983Z,100624.72
2022-11-05T07:57:58.572Z,100629.25
2022-11-05T08:00:27.368Z,100626.56
2022-11-05T08:03:07.248Z,100632.78
2022-11-05T08:05:38.172Z,100639.16
2022-11-05T08:08:07.791Z,100642.69
2022-11-05T08:10:36.047Z,100637.31
2022-11-05T08:13:04.289Z,100639.16
2022-11-05T08:15:32.142Z,100649.91
2022-11-05T08:18:00.256Z,100652.75
2022-11-05T08:20:28.163Z,100654.44
2022-11-05T08:22:56.334Z,100651.75
2022-11-05T08:25:24.333Z,100650.06
2022-11-05T08:27:56.630Z,100653.59
2022-11-05T08:30:24.379Z,100655.44
2022-11-05T08:32:51.945Z,100655.44
2022-11-05T08:35:20.326Z,100651.75
2022-11-05T08:37:47.475Z,100658.13
2022-11-05T08:40:14.813Z,100653.59
2022-11-05T08:42:42.111Z,100654.44
2022-11-05T08:45:09.792Z,100651.91
2022-11-05T08:47:36.971Z,100655.44
2022-11-05T08:50:04.373Z,100659.09
2022-11-05T08:52:32.373Z,100664.47
2022-11-05T08:54:59.661Z,100659.97
2022-11-05T08:57:27.409Z,100657.28
2022-11-05T08:59:54.640Z,100670.56
2022-11-05T09:02:21.941Z,100670.56
2022-11-05T09:04:49.333Z,100670.84
2022-11-05T09:07:16.647Z,100677.47
2022-11-05T09:09:43.962Z,100675.34
2022-11-05T09:12:12.938Z,100683.13
2022-11-05T09:14:40.561Z,100678.84
2022-11-05T09:17:22.020Z,100683.69
2022-11-05T09:19:49.408Z,100680.41
2022-11-05T09:22:16.728Z,100680.69
2022-11-05T09:24:44.016Z,100682.91
2022-11-05T09:27:15.893Z,100682.19
2022-11-05T09:29:43.123Z,100691.22
2022-11-05T09:32:10.383Z,100695.88
2022-11-05T09:34:37.754Z,100696.00
2022-11-05T09:37:05.024Z,100701.38
2022-11-05T09:39:32.300Z,100711.28
2022-11-05T09:42:05.427Z,100707.44
2022-11-05T09:44:51.022Z,100706.50
2022-11-05T09:47:24.885Z,100714.53
2022-11-05T09:49:54.771Z,100712.72
2022-11-05T09:52:25.898Z,100710.59
2022-11-05T09:54:54.339Z,100720.19
2022-11-05T09:57:45.567Z,100720.97
2022-11-05T10:00:16.942Z,100723.38
2022-11-05T10:02:53.198Z,100717.03
2022-11-05T10:05:22.385Z,100720.41
2022-11-05T10:07:54.120Z,100726.50
2022-11-05T10:10:44.471Z,100727.19
2022-11-05T10:13:23.809Z,100723.41
2022-11-05T10:16:28.475Z,100728.63
2022-11-05T10:19:09.808Z,100724.81
2022-11-05T10:22:04.884Z,100725.66
2022-11-05T10:24:25.491Z,100722.00
2022-11-05T10:26:54.559Z,100722.88
2022-11-05T10:29:29.218Z,100721.03
2022-11-05T10:31:58.572Z,100720.03
2022-11-05T10:34:30.922Z,100720.88
2022-11-05T10:36:58.175Z,100718.03
2022-11-05T10:39:27.821Z,100710.84
2022-11-05T10:42:32.034Z,100712.56
2022-11-05T10:45:34.680Z,100712.41
2022-11-05T10:48:22.200Z,100716.66
2022-11-05T10:50:50.011Z,100720.63
2022-11-05T10:53:22.309Z,100710.88
2022-11-05T10:55:51.894Z,100715.28
2022-11-05T10:58:27.530Z,100711.59
2022-11-05T11:00:54.848Z,100705.38
2022-11-05T11:03:51.319Z,100706.50
2022-11-05T11:06:31.013Z,100710.03
2022-11-05T11:09:06.486Z,100702.22
2022-11-05T11:11:41.642Z,100715.13
2022-11-05T11:14:11.786Z,100714.56
2022-11-05T11:16:45.523Z,100711.41
2022-11-05T11:19:33.936Z,100717.78
2022-11-05T11:22:04.137Z,100713.53
2022-11-05T11:24:38.217Z,100712.97
2022-11-05T11:27:32.020Z,100708.72
2022-11-05T11:30:02.193Z,100710.69
2022-11-05T11:32:39.173Z,100711.53
2022-11-05T11:35:18.581Z,100716.91
2022-11-05T11:37:46.828Z,100713.66
2022-11-05T11:40:19.455Z,100712.81
2022-11-05T11:42:55.733Z,100713.91
2022-11-05T11:45:49.661Z,100716.75
2022-11-05T11:48:24.717Z,100718.72
2022-11-05T11:51:04.531Z,100718.72
2022-11-05T11:53:36.313Z,100715.19
2022-11-05T11:56:12.310Z,100718.84
2022-11-05T11:58:48.820Z,100709.97
2022-11-05T12:01:25.763Z,100712.66
2022-11-05T12:04:17.765Z,100720.69
2022-11-05T12:07:16.452Z,100721.66
2022-11-05T12:10:24.685Z,100719.84
2022-11-05T12:13:14.139Z,100721.81
2022-11-05T12:15:49.627Z,100720.81
2022-11-05T12:18:26.061Z,100725.34
2022-11-05T12:21:13.865Z,100719.97
2022-11-05T12:23:53.423Z,100726.34
2022-11-05T12:26:36.564Z,100722.81
2022-11-05T12:29:18.774Z,100723.66
2022-11-05T12:31:55.022Z,100726.34
2022-11-05T12:34:40.390Z,100729.03
2022-11-05T12:37:29.326Z,100725.50
2022-11-05T12:39:56.557Z,100722.66
2022-11-05T12:42:23.925Z,100720.81
2022-11-05T12:44:54.152Z,100719.13
2022-11-05T12:47:24.467Z,100718.28
2022-11-05T12:49:59.963Z,100718.28
2022-11-05T12:52:32.999Z,100711.22
2022-11-05T12:55:27.177Z,100710.22
2022-11-05T12:58:05.714Z,100713.75
2022-11-05T13:00:38.161Z,100709.38
2022-11-05T13:03:14.956Z,100706.53
2022-11-05T13:05:52.448Z,100708.38
2022-11-05T13:08:44.269Z,100708.22
2022-11-05T13:11:14.565Z,100711.91
2022-11-05T13:13:48.757Z,100713.59
2022-11-05T13:16:20.001Z,100708.22
2022-11-05T13:18:57.160Z,100714.47
2022-11-05T13:21:29.056Z,100712.66
2022-11-05T13:24:15.360Z,100716.19
2022-11-05T13:26:45.736Z,100715.19
2022-11-05T13:29:19.777Z,100714.34
2022-11-05T13:31:54.760Z,100716.03
2022-11-05T13:34:22.095Z,100721.41
2022-11-05T13:37:11.185Z,100721.41
2022-11-05T13:39:54.276Z,100721.28
2022-11-05T13:42:30.348Z,100718.59
2022-11-05T13:45:21.395Z,100715.03
2022-11-05T13:48:09.802Z,100719.56
2022-11-05T13:51:01.521Z,100723.25
2022-11-05T13:53:49.697Z,100722.25
2022-11-05T13:56:39.220Z,100724.94
2022-11-05T13:59:28.025Z,100729.44
2022-11-05T14:02:00.111Z,100732.13
2022-11-05T14:04:36.559Z,100735.66
2022-11-05T14:07:28.133Z,100736.66
2022-11-05T14:10:02.565Z,100732.13
2022-11-05T14:12:34.681Z,100732.13
2022-11-05T14:15:10.526Z,100736.66
2022-11-05T14:18:03.710Z,100737.50
2022-11-05T14:20:30.865Z,100742.03
2022-11-05T14:23:17.500Z,100741.19
2022-11-05T14:25:44.660Z,100739.34
2022-11-05T14:28:48.856Z,100734.97
2022-11-05T14:31:18.625Z,100743.88
2022-11-05T14:33:59.387Z,100745.72
2022-11-05T14:36:32.009Z,100751.94
2022-11-05T14:39:17.157Z,100743.03
2022-11-05T14:42:03.053Z,100750.25
2022-11-05T14:44:32.861Z,100758.31
2022-11-05T14:47:04.543Z,100752.09
2022-11-05T14:49:49.267Z,100758.31
2022-11-05T14:52:18.813Z,100755.63
2022-11-05T14:54:49.023Z,100751.19
2022-11-05T14:57:44.856Z,100756.56
2022-11-05T15:00:40.783Z,100751.19
2022-11-05T15:03:31.762Z,100753.88
2022-11-05T15:06:08.308Z,100753.88
2022-11-05T15:08:54.995Z,100756.72
2022-11-05T15:11:40.865Z,100756.56
2022-11-05T15:14:19.691Z,100759.25
2022-11-05T15:17:03.972Z,100762.94
2022-11-05T15:19:35.070Z,100761.09
2022-11-05T15:22:07.049Z,100760.25
2022-11-05T15:24:34.956Z,100762.94
2022-11-05T15:27:25.361Z,100762.94
2022-11-05T15:29:52.656Z,100759.41
2022-11-05T15:32:25.373Z,100763.94
2022-11-05T15:34:54.901Z,100762.94
2022-11-05T15:37:25.209Z,100762.09
2022-11-05T15:39:54.835Z,100767.47
2022-11-05T15:42:24.787Z,100766.63
2022-11-05T15:44:54.755Z,100757.72
2022-11-05T15:47:26.134Z,100766.63
2022-11-05T15:49:56.182Z,100755.03
2022-11-05T15:52:33.749Z,100762.09
2022-11-05T15:55:20.057Z,100760.41
2022-11-05T15:57:51.062Z,100763.94
2022-11-05T16:00:25.352Z,100757.72
2022-11-05T16:02:56.643Z,100770.28
2022-11-05T16:05:27.083Z,100772.00
2022-11-05T16:07:57.420Z,100765.00
2022-11-05T16:10:30.525Z,100770.28
2022-11-05T16:12:57.695Z,100768.53
2022-11-05T16:15:29.495Z,100769.41
2022-11-05T16:18:00.568Z,100782.72
2022-11-05T16:20:32.159Z,100778.34
2022-11-05T16:23:02.465Z,100776.59
2022-11-05T16:25:43.585Z,100781.03
2022-11-05T16:28:19.876Z,100785.53
2022-11-05T16:30:55.993Z,100790.03
2022-11-05T16:33:25.027Z,100794.53
2022-11-05T16:35:52.339Z,100786.50
2022-11-05T16:38:20.500Z,100800.75
2022-11-05T16:40:47.865Z,100800.75
2022-11-05T16:43:22.540Z,100804.31
2022-11-05T16:45:52.920Z,100811.50
2022-11-05T16:48:20.743Z,100813.25
2022-11-05T16:50:48.103Z,100815.06
2022-11-05T16:53:16.015Z,100812.38
2022-11-05T16:55:45.325Z,100819.56
2022-11-05T16:58:25.844Z,100826.78
2022-11-05T17:01:00.899Z,100822.25
2022-11-05T17:03:28.207Z,100821.41
2022-11-05T17:05:55.406Z,100816.03
2022-11-05T17:08:22.707Z,100823.25
2022-11-05T17:10:49.965Z,100829.47
2022-11-05T17:13:19.668Z,100837.50
2022-11-05T17:15:48.903Z,100848.25
2022-11-05T17:18:18.865Z,100850.09
2022-11-05T17:20:49.811Z,100850.09
2022-11-05T17:23:20.189Z,100848.25
2022-11-05T17:25:50.703Z,100849.25
2022-11-05T17:28:19.184Z,100851.09
2022-11-05T17:30:52.215Z,100863.53
2022-11-05T17:33:22.625Z,100864.50
2022-11-05T17:35:51.302Z,100858.28
2022-11-05T17:38:19.512Z,100872.56
2022-11-05T17:40:46.842Z,100867.19
2022-11-05T17:43:15.741Z,100872.56
2022-11-05T17:45:46.108Z,100877.09
2022-11-05T17:48:13.884Z,100877.09
2022-11-05T17:50:47.044Z,100873.56
2022-11-05T17:53:16.344Z,100887.00
2022-11-05T17:55:45.269Z,100884.31
2022-11-05T17:58:13.371Z,100887.84
2022-11-05T18:00:42.449Z,100885.25
2022-11-05T18:03:11.105Z,100895.03
2022-11-05T18:05:40.034Z,100894.16
2022-11-05T18:08:08.158Z,100890.53
2022-11-05T18:10:39.722Z,100903.09
2022-11-05T18:13:07.794Z,100902.22
2022-11-05T18:15:38.007Z,100902.22
2022-11-05T18:18:05.385Z,100911.16
2022-11-05T18:20:33.100Z,100901.38
2022-11-05T18:23:00.516Z,100909.44
2022-11-05T18:25:28.048Z,100907.75
2022-11-05T18:27:55.810Z,100915.66
2022-11-05T18:30:23.245Z,100912.25
2022-11-05T18:32:51.129Z,100913.09
2022-11-05T18:35:18.515Z,100913.09
2022-11-05T18:37:45.996Z,100924.84
2022-11-05T18:40:13.256Z,100917.63
2022-11-05T18:42:41.682Z,100926.53
2022-11-05T18:45:10.507Z,100922.16
2022-11-05T18:47:38.363Z,100928.38
2022-11-05T18:50:07.204Z,100932.91
2022-11-05T18:52:34.582Z,100930.22
2022-11-05T18:55:01.897Z,100928.50
2022-11-05T18:57:29.343Z,100935.59
2022-11-05T18:59:56.624Z,100940.94
2022-11-05T19:02:24.021Z,100938.38
2022-11-05T19:05:22.015Z,100946.31
2022-11-05T19:07:39.324Z,100941.06
2022-11-05T19:10:07.659Z,100938.38
2022-11-05T19:12:34.921Z,100942.06
2022-11-05T19:15:03.004Z,100945.59
2022-11-05T19:17:32.966Z,100949.25
2022-11-05T19:20:01.070Z,100951.94
2022-11-05T19:22:28.344Z,100945.72
2022-11-05T19:24:55.617Z,100960.00
2022-11-05T19:27:23.376Z,100959.16
2022-11-05T19:29:50.682Z,100966.22
2022-11-05T19:32:18.207Z,100960.84
2022-11-05T19:34:46.865Z,100963.44
2022-11-05T19:37:14.337Z,100960.75
2022-11-05T19:39:41.825Z,100964.28
2022-11-05T19:42:09.276Z,100962.44
2022-11-05T19:44:36.548Z,100968.66
2022-11-05T19:47:03.968Z,100974.88
2022-11-05T19:49:34.205Z,100974.03
2022-11-05T19:52:01.745Z,100985.63
2022-11-05T19:54:30.589Z,100975.72
2022-11-05T19:56:58.769Z,100983.78
2022-11-05T19:59:26.292Z,100990.84
2022-11-05T20:01:53.890Z,100992.69
2022-11-05T20:04:21.612Z,100987.31
2022-11-05T20:06:49.635Z,101000.63
2022-11-05T20:09:23.479Z,100999.78
2022-11-05T20:11:54.615Z,100997.09
2022-11-05T20:14:23.767Z,101004.16
2022-11-05T20:16:51.559Z,101005.16
2022-11-05T20:19:21.133Z,101015.00
2022-11-05T20:21:49.134Z,101010.53
2022-11-05T20:24:23.670Z,101015.88
2022-11-05T20:26:53.389Z,101017.69
2022-11-05T20:29:21.057Z,101020.38
2022-11-05T20:31:48.674Z,101014.16
2022-11-05T20:34:16.155Z,101020.38
2022-11-05T20:36:43.381Z,101025.75
2022-11-05T20:39:12.094Z,101024.06
2022-11-05T20:41:39.515Z,101031.13
2022-11-05T20:44:06.789Z,101032.97
2022-11-05T20:46:34.350Z,101025.75
2022-11-05T20:49:01.611Z,101032.97
2022-11-05T20:51:29.759Z,101031.13
2022-11-05T20:53:59.460Z,101030.28
2022-11-05T20:56:29.661Z,101035.66
2022-11-05T20:58:58.833Z,101036.50
2022-11-05T21:01:29.353Z,101038.22
2022-11-05T21:03:57.175Z,101038.22
2022-11-05T21:06:24.555Z,101042.75
2022-11-05T21:08:52.633Z,101048.13
2022-11-05T21:11:20.747Z,101048.22
2022-11-05T21:13:48.525Z,101058.97
2022-11-05T21:16:18.853Z,101059.81
2022-11-05T21:18:47.377Z,101067.88
2022-11-05T21:21:19.310Z,101067.88
2022-11-05T21:23:47.062Z,101065.31
2022-11-05T21:26:15.356Z,101071.53
2022-11-05T21:28:49.312Z,101066.16
2022-11-05T21:31:16.584Z,101076.06
2022-11-05T21:33:43.882Z,101071.53
2022-11-05T21:36:12.918Z,101075.22
2022-11-05T21:38:41.514Z,101069.84
2022-11-05T21:41:11.378Z,101075.22
2022-11-05T21:43:40.805Z,101066.31
2022-11-05T21:46:08.127Z,101071.69
2022-11-05T21:48:38.927Z,101069.00
2022-11-05T21:51:25.067Z,101073.53
2022-11-05T21:54:10.918Z,101073.53
2022-11-05T21:56:56.583Z,101075.22
2022-11-05T21:59:43.836Z,101073.38
2022-11-05T22:02:13.132Z,101065.31
2022-11-05T22:04:43.229Z,101062.63
2022-11-05T22:07:15.574Z,101071.53
2022-11-05T22:09:43.572Z,101066.03
2022-11-05T22:12:11.494Z,101062.50
2022-11-05T22:14:39.259Z,101071.28
2022-11-05T22:17:07.656Z,101076.66
2022-11-05T22:19:35.501Z,101069.59
2022-11-05T22:22:04.959Z,101078.50
2022-11-05T22:24:33.473Z,101083.88
2022-11-05T22:27:02.957Z,101075.81
2022-11-05T22:29:30.497Z,101073.97
2022-11-05T22:31:57.815Z,101069.59
2022-11-05T22:34:25.938Z,101073.97
2022-11-05T22:36:53.499Z,101077.50
2022-11-05T22:39:21.023Z,101079.34
2022-11-05T22:41:48.915Z,101071.28
2022-11-05T22:44:16.755Z,101077.50
2022-11-05T22:46:44.131Z,101082.03
2022-11-05T22:49:11.575Z,101077.50
2022-11-05T22:51:39.607Z,101079.34
2022-11-05T22:54:07.519Z,101084.59
2022-11-05T22:56:38.433Z,101085.56
2022-11-05T22:59:06.871Z,101090.94
2022-11-05T23:01:34.676Z,101092.78
2022-11-05T23:04:02.080Z,101092.78
2022-11-05T23:06:51.814Z,101094.47
2022-11-05T23:09:55.820Z,101100.69
2022-11-05T23:12:32.045Z,101105.22
2022-11-05T23:15:01.242Z,101107.91
2022-11-05T23:17:48.177Z,101116.81
2022-11-05T23:20:37.625Z,101115.97
2022-11-05T23:23:27.912Z,101127.56
2022-11-05T23:26:00.035Z,101139.28
2022-11-05T23:28:27.451Z,101132.06
2022-11-05T23:31:13.115Z,101132.94
2022-11-05T23:33:40.308Z,101137.44
2022-11-05T23:36:30.893Z,101141.13
2022-11-05T23:38:58.101Z,101151.88
2022-11-05T23:41:43.669Z,101150.16
2022-11-05T23:44:29.327Z,101155.53
2022-11-05T23:47:15.156Z,101158.22
2022-11-05T23:49:42.440Z,101153.81
2022-11-05T23:52:09.699Z,101153.81
2022-11-05T23:54:37.031Z,101144.06
2022-11-05T23:57:04.776Z,101140.50
2022-11-05T23:59:32.041Z,101140.50
